Time;durP1;ratioP1;P1;durP2;ratioP2;P2;SDS_P1;SDS_P2;PMS_P1;PMS_P2;Temp;Humidity;BMP_temperature;BMP_pressure;BME280_temperature;BME280_humidity;BME280_pressure;Samples;Min_cycle;Max_cycle;Signal;HPM_P1;HPM_P2
2022/10/14 00:01:10;;;;;;;4.80;1.55;;;;;;;14.18;68.61;151217.53;1733692;82;21513;-66
2022/10/14 00:03:38;;;;;;;3.55;1.50;;;;;;;14.16;68.50;151212.33;1733955;82;21390;-66
2022/10/14 00:06:11;;;;;;;4.37;1.70;;;;;;;14.13;68.64;151203.20;1735699;82;21056;-64
2022/10/14 00:08:40;;;;;;;4.65;1.65;;;;;;;14.10;67.36;151195.41;1736381;82;21517;-65
2022/10/14 00:11:13;;;;;;;4.30;1.42;;;;;;;14.06;67.05;151185.00;1743788;80;21038;-65
2022/10/14 00:13:40;;;;;;;4.62;1.80;;;;;;;14.03;66.36;151179.77;1734941;82;22133;-66
2022/10/14 00:16:09;;;;;;;5.58;1.37;;;;;;;14.02;65.87;151177.16;1736577;82;21563;-66
2022/10/14 00:18:36;;;;;;;7.40;1.98;;;;;;;14.00;65.88;151171.97;1705506;82;21015;-65
2022/10/14 00:21:03;;;;;;;4.70;1.80;;;;;;;13.98;66.58;151166.77;1737055;82;21050;-65
2022/10/14 00:23:31;;;;;;;7.28;1.50;;;;;;;13.97;66.90;151164.16;1737151;82;21048;-66
2022/10/14 00:25:57;;;;;;;5.90;1.70;;;;;;;13.95;67.05;151158.97;1740660;82;21100;-66
2022/10/14 00:28:27;;;;;;;7.03;1.50;;;;;;;13.92;67.38;151149.84;1731567;82;21094;-66
2022/10/14 00:30:56;;;;;;;9.05;1.55;;;;;;;13.89;66.21;151143.38;1737465;82;21064;-66
2022/10/14 00:33:24;;;;;;;10.15;1.60;;;;;;;13.87;66.40;151138.17;1737285;82;21066;-65
2022/10/14 00:35:56;;;;;;;5.37;1.55;;;;;;;13.86;67.08;151135.58;1739427;82;21460;-66
2022/10/14 00:38:25;;;;;;;8.53;1.80;;;;;;;13.84;67.20;151130.38;1745142;81;21555;-66
2022/10/14 00:40:52;;;;;;;5.70;1.60;;;;;;;13.80;67.19;151119.92;1754595;81;21072;-65
2022/10/14 00:43:22;;;;;;;5.28;1.60;;;;;;;13.76;67.62;151110.86;1754848;81;21452;-67
2022/10/14 00:45:49;;;;;;;8.10;1.80;;;;;;;13.70;67.74;151096.53;1754790;81;20992;-66
2022/10/14 00:48:18;;;;;;;5.87;1.70;;;;;;;13.68;67.76;151091.34;1755173;81;21052;-66
2022/10/14 00:50:47;;;;;;;6.87;1.60;;;;;;;13.64;67.19;151079.62;1755086;81;21186;-66
2022/10/14 00:53:14;;;;;;;6.70;1.70;;;;;;;13.61;66.44;151073.14;1754916;81;21075;-66
2022/10/14 00:55:41;;;;;;;6.62;2.20;;;;;;;13.56;65.05;151061.44;1754980;81;21061;-65
2022/10/14 00:58:10;;;;;;;4.37;1.62;;;;;;;13.54;64.84;151054.91;1754940;81;21118;-65
2022/10/14 01:00:38;;;;;;;9.03;2.22;;;;;;;13.50;65.49;151045.84;1729959;81;20972;-66
2022/10/14 01:03:09;;;;;;;4.37;1.95;;;;;;;13.46;65.25;151036.72;1755209;81;21303;-66
2022/10/14 01:05:47;;;;;;;6.17;1.90;;;;;;;13.43;65.02;151028.92;1754804;81;21295;-66
2022/10/14 01:08:31;;;;;;;5.33;2.00;;;;;;;13.41;65.38;151023.69;1754484;81;21486;-66
2022/10/14 01:11:09;;;;;;;6.30;1.75;;;;;;;13.38;66.82;151015.89;1754767;81;21104;-66
2022/10/14 01:13:41;;;;;;;8.65;1.95;;;;;;;13.35;68.22;151008.03;1754889;81;21562;-66
2022/10/14 01:16:41;;;;;;;6.15;1.85;;;;;;;13.34;69.21;151005.44;1754654;81;21429;-71
2022/10/14 01:19:29;;;;;;;9.10;2.52;;;;;;;13.30;68.99;150996.37;1754147;81;21076;-71
2022/10/14 01:22:13;;;;;;;14.63;2.55;;;;;;;13.27;68.80;150987.25;1755255;81;21375;-70
2022/10/14 01:24:54;;;;;;;8.63;1.80;;;;;;;13.25;68.52;150983.34;1755451;81;21055;-70
2022/10/14 01:28:01;;;;;;;12.30;2.80;;;;;;;13.25;68.45;150982.06;1755280;81;21450;-70
2022/10/14 01:30:42;;;;;;;;;;;;;;;13.26;68.46;150984.66;1763511;80;21232;-70
2022/10/14 01:33:20;;;;;;;11.30;2.72;;;;;;;13.24;67.62;150979.45;1734450;81;20227;-71
2022/10/14 01:36:05;;;;;;;7.87;2.47;;;;;;;13.22;65.77;150975.55;1760688;81;21450;-66
2022/10/14 01:38:50;;;;;;;8.18;3.00;;;;;;;13.22;65.26;150974.27;1774192;80;21000;-66
2022/10/14 01:41:22;;;;;;;6.85;2.42;;;;;;;13.20;65.66;150969.06;1755669;81;21057;-65
2022/10/14 01:43:50;;;;;;;9.03;2.67;;;;;;;13.22;66.06;150975.55;1774603;80;21221;-67
2022/10/14 01:46:19;;;;;;;11.53;2.92;;;;;;;13.20;66.60;150970.34;1779518;80;21325;-65
2022/10/14 01:48:50;;;;;;;6.97;2.20;;;;;;;13.20;66.69;150969.06;1755344;80;21110;-65
2022/10/14 01:51:30;;;;;;;6.40;2.17;;;;;;;13.16;66.66;150961.28;1779794;80;21099;-66
2022/10/14 01:54:05;;;;;;;7.58;2.17;;;;;;;13.13;66.79;150953.44;1779715;80;21077;-66
2022/10/14 01:56:32;;;;;;;6.78;2.55;;;;;;;13.08;67.10;150940.44;1779815;80;23440;-65
2022/10/14 01:58:59;;;;;;;10.48;2.00;;;;;;;13.03;67.01;150927.45;1755628;80;21045;-65
2022/10/14 02:01:26;;;;;;;5.50;1.85;;;;;;;13.01;67.15;150923.53;1755293;80;21051;-66
2022/10/14 02:03:53;;;;;;;5.97;1.92;;;;;;;13.01;67.68;150922.25;1735236;81;21076;-65
2022/10/14 02:06:32;;;;;;;5.97;2.22;;;;;;;12.98;68.49;150914.47;1754891;81;21088;-66
2022/10/14 02:09:42;;;;;;;7.17;2.08;;;;;;;12.95;68.42;150906.67;1760689;80;21024;-65
2022/10/14 02:12:46;;;;;;;8.78;2.52;;;;;;;12.92;67.95;150898.83;1760792;80;21027;-66
2022/10/14 02:15:39;;;;;;;6.50;1.75;;;;;;;12.87;67.53;150888.44;1760750;81;21020;-66
2022/10/14 02:18:18;;;;;;;7.20;2.00;;;;;;;12.85;67.06;150881.97;1759558;81;21048;-66
2022/10/14 02:21:17;;;;;;;7.78;1.90;;;;;;;12.82;67.09;150875.45;1760731;81;21075;-65
2022/10/14 02:23:48;;;;;;;5.20;1.90;;;;;;;12.80;67.46;150870.27;1775222;80;21224;-66
2022/10/14 02:26:15;;;;;;;7.90;1.82;;;;;;;12.77;67.53;150862.47;1760758;81;21394;-66
2022/10/14 02:28:44;;;;;;;7.30;2.47;;;;;;;12.75;67.69;150858.55;1775236;80;21446;-65
2022/10/14 02:31:15;;;;;;;5.42;1.62;;;;;;;12.74;67.75;150855.95;1730596;80;21053;-65
2022/10/14 02:33:46;;;;;;;8.85;2.08;;;;;;;12.72;67.52;150849.48;1778788;80;21062;-70
2022/10/14 02:36:15;;;;;;;4.08;1.60;;;;;;;12.70;67.64;150844.25;1755517;80;21188;-69
2022/10/14 02:38:43;;;;;;;7.58;1.87;;;;;;;12.70;67.75;150844.25;1785312;79;21072;-69
2022/10/14 02:41:14;;;;;;;2.95;1.50;;;;;;;12.68;67.73;150840.37;1782636;79;21057;-70
2022/10/14 02:43:41;;;;;;;8.28;1.50;;;;;;;12.68;67.26;150839.05;1797896;78;21037;-70
2022/10/14 02:46:07;;;;;;;5.05;1.77;;;;;;;12.68;67.08;150839.05;1797857;78;21069;-70
2022/10/14 02:48:35;;;;;;;5.37;1.65;;;;;;;12.67;67.32;150836.45;1796666;79;21243;-70
2022/10/14 02:51:02;;;;;;;3.67;1.40;;;;;;;12.66;67.11;150833.84;1798176;79;20979;-71
2022/10/14 02:53:32;;;;;;;6.90;1.70;;;;;;;12.65;66.96;150831.25;1796237;79;21574;-69
2022/10/14 02:55:59;;;;;;;4.92;1.50;;;;;;;12.65;66.48;150831.25;1796467;79;20953;-70
2022/10/14 02:58:28;;;;;;;4.20;1.70;;;;;;;12.64;66.26;150828.66;1796283;79;21132;-70
2022/10/14 03:00:56;;;;;;;3.20;1.27;;;;;;;12.65;66.38;150831.25;1796318;79;21160;-70
2022/10/14 03:03:24;;;;;;;5.25;1.55;;;;;;;12.63;65.75;150826.06;1796221;79;21439;-70
2022/10/14 03:05:51;;;;;;;6.87;1.52;;;;;;;12.65;65.21;150831.25;1796670;79;21042;-70
2022/10/14 03:08:19;;;;;;;13.78;1.95;;;;;;;12.64;65.33;150829.98;1797710;79;21381;-72
2022/10/14 03:10:47;;;;;;;2.87;1.32;;;;;;;12.62;65.45;150824.78;1798056;79;21439;-69
2022/10/14 03:13:14;;;;;;;7.92;1.55;;;;;;;12.62;65.23;150824.78;1798651;79;22131;-72
2022/10/14 03:15:44;;;;;;;5.53;1.37;;;;;;;12.60;65.38;150820.88;1797977;79;21410;-71
2022/10/14 03:18:11;;;;;;;3.35;1.32;;;;;;;12.59;65.60;150818.28;1779485;79;21270;-71
2022/10/14 03:20:43;;;;;;;3.27;1.20;;;;;;;12.59;65.42;150818.28;1795885;79;21045;-71
2022/10/14 03:23:11;;;;;;;6.35;1.37;;;;;;;12.59;65.12;150818.28;1796292;79;21069;-70
2022/10/14 03:25:39;;;;;;;3.08;1.47;;;;;;;12.59;65.11;150818.28;1796578;79;21075;-71
2022/10/14 03:28:11;;;;;;;7.25;1.70;;;;;;;12.60;64.95;150819.59;1795575;79;21089;-70
2022/10/14 03:30:59;;;;;;;6.85;1.50;;;;;;;12.60;64.31;150819.59;1796265;79;21081;-71
2022/10/14 03:33:33;;;;;;;11.73;1.70;;;;;;;12.63;64.31;150827.39;1794565;78;21080;-70
2022/10/14 03:36:06;;;;;;;6.85;1.92;;;;;;;12.65;64.42;150831.25;1795843;79;21016;-70
2022/10/14 03:38:34;;;;;;;3.05;1.17;;;;;;;12.65;64.42;150832.58;1795794;79;21104;-70
2022/10/14 03:41:02;;;;;;;5.10;1.55;;;;;;;12.66;64.68;150833.84;1798066;78;21026;-71
2022/10/14 03:43:29;;;;;;;4.78;1.50;;;;;;;12.66;64.98;150833.84;1798079;79;21019;-72
2022/10/14 03:45:57;;;;;;;4.22;1.45;;;;;;;12.66;65.24;150835.19;1798157;78;21034;-71
2022/10/14 03:48:25;;;;;;;4.37;1.50;;;;;;;12.67;65.16;150836.45;1786337;79;21053;-70
2022/10/14 03:50:54;;;;;;;4.70;1.85;;;;;;;12.67;65.42;150836.45;1780009;79;21806;-70
2022/10/14 03:53:22;;;;;;;6.70;1.77;;;;;;;12.65;65.67;150832.58;1780217;79;21085;-71
2022/10/14 03:55:49;;;;;;;4.70;1.85;;;;;;;12.67;65.90;150836.45;1768580;79;21113;-72
2022/10/14 03:58:16;;;;;;;4.80;1.50;;;;;;;12.65;65.58;150832.58;1780312;79;21030;-71
2022/10/14 04:00:46;;;;;;;5.47;1.40;;;;;;;12.64;65.46;150828.66;1779934;79;21018;-70
2022/10/14 04:03:31;;;;;;;;;;;;;;;12.64;65.81;150828.66;1795265;79;21114;-70
2022/10/14 04:05:58;;;;;;;4.87;1.60;;;;;;;12.63;65.76;150826.06;1798173;78;20137;-70
2022/10/14 04:08:27;;;;;;;4.70;1.40;;;;;;;12.62;65.66;150824.78;1784964;79;21025;-66
2022/10/14 04:11:00;;;;;;;4.58;1.77;;;;;;;12.61;65.65;150823.47;1787007;79;21007;-65
2022/10/14 04:13:29;;;;;;;5.40;1.37;;;;;;;12.59;65.91;150818.28;1794278;79;21045;-65
2022/10/14 04:16:03;;;;;;;4.00;1.57;;;;;;;12.57;66.18;150811.75;1780400;79;21473;-67
2022/10/14 04:18:36;;;;;;;3.85;1.75;;;;;;;12.57;65.95;150811.75;1759686;79;21508;-67
2022/10/14 04:21:10;;;;;;;5.30;1.82;;;;;;;12.54;66.06;150805.28;1780657;79;20960;-67
2022/10/14 04:23:38;;;;;;;6.25;1.98;;;;;;;12.55;66.34;150807.89;1786618;79;21033;-66
2022/10/14 04:26:08;;;;;;;4.42;2.27;;;;;;;12.59;66.46;150818.28;1780238;79;21077;-66
2022/10/14 04:28:36;;;;;;;8.08;1.80;;;;;;;12.72;66.62;150849.48;1782729;79;21080;-65
2022/10/14 04:31:05;;;;;;;4.83;1.60;;;;;;;12.88;66.24;150891.03;1783691;79;21120;-66
2022/10/14 04:33:34;;;;;;;6.53;1.80;;;;;;;13.01;65.95;150922.25;1779430;79;21054;-66
2022/10/14 04:36:05;;;;;;;2.85;1.57;;;;;;;13.08;65.88;150940.44;1779147;79;21011;-66
2022/10/14 04:38:35;;;;;;;5.20;1.80;;;;;;;13.09;64.49;150943.05;1780083;79;21204;-67
2022/10/14 04:41:04;;;;;;;6.62;1.65;;;;;;;13.07;63.81;150937.84;1781881;80;21768;-67
2022/10/14 04:43:31;;;;;;;6.40;1.52;;;;;;;13.05;63.50;150932.66;1781579;80;21717;-64
2022/10/14 04:46:00;;;;;;;5.28;1.55;;;;;;;13.07;62.93;150936.56;1782137;80;21485;-66
2022/10/14 04:48:27;;;;;;;4.92;1.67;;;;;;;13.08;63.18;150940.44;1783061;80;21049;-66
2022/10/14 04:50:54;;;;;;;5.45;1.50;;;;;;;13.12;63.03;150949.56;1757681;80;21086;-70
2022/10/14 04:53:40;;;;;;;5.50;1.47;;;;;;;13.16;62.01;150961.28;1781407;80;21778;-72
2022/10/14 04:56:08;;;;;;;3.60;1.40;;;;;;;13.20;62.16;150969.06;1781305;80;21006;-70
2022/10/14 04:58:39;;;;;;;4.53;1.52;;;;;;;13.26;60.30;150985.97;1782775;79;21054;-70
2022/10/14 05:01:07;;;;;;;5.20;1.50;;;;;;;13.34;59.93;151005.44;1783275;80;21796;-71
2022/10/14 05:03:36;;;;;;;5.20;1.55;;;;;;;13.39;59.72;151018.48;1782995;79;21539;-71
2022/10/14 05:06:03;;;;;;;3.98;1.45;;;;;;;13.48;60.06;151039.31;1783998;80;21220;-70
2022/10/14 05:08:30;;;;;;;3.90;1.20;;;;;;;13.55;59.92;151058.83;1782330;80;21097;-71
2022/10/14 05:11:00;;;;;;;4.22;1.50;;;;;;;13.60;59.83;151071.83;1781667;80;21050;-69
2022/10/14 05:13:29;;;;;;;5.22;1.50;;;;;;;13.68;59.46;151091.34;1780966;80;21026;-71
2022/10/14 05:15:57;;;;;;;3.70;1.42;;;;;;;13.75;58.72;151108.25;1783260;79;21037;-69
2022/10/14 05:18:24;;;;;;;7.58;1.60;;;;;;;13.80;58.52;151121.25;1783516;80;21215;-71
2022/10/14 05:20:53;;;;;;;4.42;1.47;;;;;;;13.87;58.40;151138.17;1782667;79;21026;-70
2022/10/14 05:23:21;;;;;;;7.05;1.90;;;;;;;13.94;57.84;151156.38;1754405;80;21094;-70
2022/10/14 05:25:48;;;;;;;5.97;1.87;;;;;;;14.00;57.76;151171.97;1783593;80;21485;-70
2022/10/14 05:28:17;;;;;;;4.60;1.42;;;;;;;14.06;57.84;151185.00;1783507;80;21384;-70
2022/10/14 05:30:45;;;;;;;7.60;1.80;;;;;;;14.13;57.08;151203.20;1783642;79;21972;-70
2022/10/14 05:33:13;;;;;;;1.85;1.27;;;;;;;14.15;55.63;151209.73;1783741;80;21017;-71
2022/10/14 05:35:42;;;;;;;3.10;1.20;;;;;;;14.18;54.89;151216.20;1783422;79;21019;-70
2022/10/14 05:38:11;;;;;;;2.35;1.40;;;;;;;14.24;55.12;151231.81;1783676;79;21015;-71
2022/10/14 05:40:39;;;;;;;7.15;1.55;;;;;;;14.29;55.63;151244.84;1787028;79;21030;-70
2022/10/14 05:43:08;;;;;;;9.70;2.08;;;;;;;14.33;55.25;151255.25;1780285;80;21279;-70
2022/10/14 05:45:36;;;;;;;5.42;1.40;;;;;;;14.37;54.99;151263.05;1780222;79;21018;-70
2022/10/14 05:48:05;;;;;;;6.90;1.37;;;;;;;14.42;54.34;151277.37;1780380;79;21385;-70
2022/10/14 05:50:32;;;;;;;5.00;1.57;;;;;;;14.47;54.35;151290.38;1780827;79;21090;-71
2022/10/14 05:53:01;;;;;;;4.95;1.65;;;;;;;14.53;54.64;151303.38;1779899;79;21034;-70
2022/10/14 05:55:31;;;;;;;2.47;1.70;;;;;;;14.58;54.37;151316.38;1781774;79;21222;-70
2022/10/14 05:58:00;;;;;;;4.37;1.32;;;;;;;14.62;53.75;151326.83;1771920;79;21513;-71
2022/10/14 06:00:28;;;;;;;8.18;1.50;;;;;;;14.63;53.61;151328.11;1780318;79;21515;-71
2022/10/14 06:02:57;;;;;;;3.83;1.45;;;;;;;14.63;53.31;151328.11;1778747;79;21471;-71
2022/10/14 06:05:25;;;;;;;8.83;1.27;;;;;;;14.65;52.00;151333.31;1777790;79;21026;-71
2022/10/14 06:07:54;;;;;;;3.08;1.20;;;;;;;14.65;51.54;151333.31;1774795;79;21432;-71
2022/10/14 06:10:21;;;;;;;4.92;1.12;;;;;;;14.63;51.34;151328.11;1784037;79;21015;-71
2022/10/14 06:12:49;;;;;;;1.98;1.12;;;;;;;14.61;50.98;151324.23;1782173;79;21002;-70
2022/10/14 06:15:20;;;;;;;3.65;1.20;;;;;;;14.61;50.58;151325.50;1786582;79;21038;-71
2022/10/14 06:17:47;;;;;;;4.03;1.20;;;;;;;14.61;50.27;151325.50;1783544;79;21009;-72
2022/10/14 06:20:15;;;;;;;7.70;1.22;;;;;;;14.63;50.30;151328.11;1783350;79;21226;-71
2022/10/14 06:22:44;;;;;;;2.12;1.05;;;;;;;14.68;49.94;151341.11;1786785;79;21092;-70
2022/10/14 06:25:11;;;;;;;4.33;1.12;;;;;;;14.65;50.27;151333.31;1779153;79;21078;-73
2022/10/14 06:27:39;;;;;;;2.42;0.95;;;;;;;14.61;50.32;151325.50;1787485;79;21034;-71
2022/10/14 06:30:08;;;;;;;3.72;1.50;;;;;;;14.65;50.87;151334.63;1783349;78;21062;-71
2022/10/14 06:32:35;;;;;;;7.00;1.25;;;;;;;14.71;51.32;151349.00;1780654;79;21519;-70
2022/10/14 06:35:04;;;;;;;4.45;1.35;;;;;;;14.77;51.00;151364.61;1780703;79;37396;-71
2022/10/14 06:37:31;;;;;;;3.98;1.32;;;;;;;14.81;50.39;151375.02;1774609;79;21046;-71
2022/10/14 06:39:59;;;;;;;4.97;1.37;;;;;;;14.82;50.42;151377.62;1779038;79;21051;-70
2022/10/14 06:42:27;;;;;;;6.25;1.72;;;;;;;14.83;50.99;151380.22;1774277;80;21031;-71
2022/10/14 06:44:57;;;;;;;5.00;2.65;;;;;;;14.82;52.04;151377.62;1752840;79;21305;-71
2022/10/14 06:47:24;;;;;;;5.10;2.30;;;;;;;14.82;51.88;151376.34;1784071;79;21101;-71
2022/10/14 06:49:51;;;;;;;3.35;1.40;;;;;;;14.81;51.75;151375.02;1781982;80;21013;-70
2022/10/14 06:52:18;;;;;;;6.30;2.15;;;;;;;14.78;50.90;151367.22;1780171;79;21093;-71
2022/10/14 06:54:46;;;;;;;4.62;1.47;;;;;;;14.75;50.87;151359.41;1780532;79;21215;-71
2022/10/14 06:57:13;;;;;;;4.72;1.60;;;;;;;14.75;51.83;151359.41;1776373;80;21541;-70
2022/10/14 06:59:43;;;;;;;4.00;1.40;;;;;;;14.79;52.07;151369.81;1781066;79;21705;-70
2022/10/14 07:02:11;;;;;;;6.55;1.50;;;;;;;14.81;50.77;151373.69;1779508;79;20979;-70
2022/10/14 07:04:40;;;;;;;4.97;1.50;;;;;;;14.71;50.58;151350.28;1780031;80;21232;-70
2022/10/14 07:07:08;;;;;;;3.37;1.15;;;;;;;14.67;51.09;151338.50;1781837;80;21437;-70
2022/10/14 07:09:36;;;;;;;10.32;1.40;;;;;;;14.68;51.08;151341.11;1773899;79;21615;-70
2022/10/14 07:12:06;;;;;;;5.67;1.30;;;;;;;14.69;51.17;151343.72;1732609;81;21048;-70
2022/10/14 07:14:36;;;;;;;7.40;1.10;;;;;;;14.68;51.00;151341.11;1775091;79;21077;-70
2022/10/14 07:17:02;;;;;;;3.05;1.10;;;;;;;14.70;51.35;151346.31;1777423;79;21050;-70
2022/10/14 07:19:31;;;;;;;1.82;1.00;;;;;;;14.71;51.18;151349.00;1780285;79;21512;-70
2022/10/14 07:21:57;;;;;;;2.62;1.10;;;;;;;14.68;51.13;151341.11;1772968;80;21053;-71
2022/10/14 07:24:25;;;;;;;4.33;1.35;;;;;;;14.62;51.27;151326.83;1775368;79;21075;-70
2022/10/14 07:26:53;;;;;;;3.85;1.30;;;;;;;14.64;51.52;151330.70;1752455;80;21050;-72
2022/10/14 07:29:20;;;;;;;3.08;1.12;;;;;;;14.61;51.58;151325.50;1775515;79;21563;-71
2022/10/14 07:31:46;;;;;;;5.95;1.42;;;;;;;14.56;51.87;151312.50;1778269;79;21138;-71
2022/10/14 07:34:15;;;;;;;3.52;1.17;;;;;;;14.54;51.99;151307.30;1781420;79;21177;-71
2022/10/14 07:36:42;;;;;;;3.58;1.60;;;;;;;14.53;51.54;151304.70;1777935;79;21071;-71
2022/10/14 07:39:09;;;;;;;4.20;1.20;;;;;;;14.55;52.04;151309.91;1778453;79;21046;-72
2022/10/14 07:41:42;;;;;;;4.55;1.25;;;;;;;14.59;51.79;151320.31;1785887;80;21049;-67
2022/10/14 07:44:23;;;;;;;7.35;1.37;;;;;;;14.60;52.15;151322.91;1762699;80;20991;-67
2022/10/14 07:46:57;;;;;;;1.60;0.80;;;;;;;14.68;52.24;151341.11;1786388;80;20974;-71
2022/10/14 07:49:26;;;;;;;1.47;0.90;;;;;;;14.72;52.26;151352.88;1788786;80;21007;-72
2022/10/14 07:51:53;;;;;;;2.50;0.88;;;;;;;14.70;51.28;151347.62;1779364;80;21003;-70
2022/10/14 07:54:22;;;;;;;3.15;0.93;;;;;;;14.69;49.22;151343.72;1789154;78;21125;-67
2022/10/14 07:56:50;;;;;;;2.02;1.10;;;;;;;14.67;49.37;151338.50;1782205;80;21077;-67
2022/10/14 07:59:19;;;;;;;1.65;0.72;;;;;;;14.68;49.56;151341.11;1779240;80;21123;-65
2022/10/14 08:01:47;;;;;;;2.12;0.95;;;;;;;14.69;50.45;151343.72;1787739;78;21098;-71
2022/10/14 08:04:15;;;;;;;2.70;1.00;;;;;;;14.69;51.08;151343.72;1783135;78;21519;-71
2022/10/14 08:06:43;;;;;;;3.45;1.00;;;;;;;14.72;50.23;151352.88;1783208;80;21106;-73
2022/10/14 08:09:10;;;;;;;2.70;0.70;;;;;;;14.75;49.99;151360.69;1784600;80;21062;-69
2022/10/14 08:11:42;;;;;;;3.30;0.80;;;;;;;14.81;49.80;151375.02;1786377;79;21459;-66
2022/10/14 08:14:27;;;;;;;2.58;1.10;;;;;;;14.83;48.79;151380.22;1777121;80;21094;-68
2022/10/14 08:16:58;;;;;;;6.58;0.95;;;;;;;14.82;48.51;151377.62;1762410;80;21110;-65
2022/10/14 08:19:25;;;;;;;2.55;0.80;;;;;;;14.84;49.29;151381.55;1783148;80;21073;-68
2022/10/14 08:21:54;;;;;;;3.00;1.00;;;;;;;14.84;48.54;151382.81;1785123;80;21038;-72
2022/10/14 08:24:21;;;;;;;4.83;0.90;;;;;;;14.88;48.05;151391.94;1761841;79;21291;-71
2022/10/14 08:26:56;;;;;;;1.85;0.90;;;;;;;14.91;48.96;151399.75;1787521;79;21097;-71
2022/10/14 08:29:30;;;;;;;2.25;1.55;;;;;;;14.89;48.90;151395.83;1788469;80;21312;-70
2022/10/14 08:31:57;;;;;;;2.37;0.90;;;;;;;14.82;50.60;151377.62;1785156;79;21069;-70
2022/10/14 08:34:24;;;;;;;4.90;1.00;;;;;;;14.84;50.62;151381.55;1786740;78;21117;-70
2022/10/14 08:36:51;;;;;;;5.87;1.52;;;;;;;14.81;49.75;151375.02;1785725;80;21271;-70
2022/10/14 08:39:20;;;;;;;2.87;0.90;;;;;;;14.74;50.63;151358.09;1787502;79;21062;-72
2022/10/14 08:41:59;;;;;;;3.67;0.95;;;;;;;14.75;50.30;151359.41;1777800;80;21118;-71
2022/10/14 08:44:38;;;;;;;2.12;0.90;;;;;;;14.73;50.30;151354.22;1774148;80;21129;-71
2022/10/14 08:47:14;;;;;;;3.77;0.98;;;;;;;14.71;51.92;151350.28;1778812;80;22370;-71
2022/10/14 08:50:12;;;;;;;2.30;1.20;;;;;;;14.68;52.28;151342.44;1774644;80;22211;-71
2022/10/14 08:52:52;;;;;;;1.55;1.00;;;;;;;14.69;52.76;151343.72;1664436;81;21062;-72
2022/10/14 08:55:31;;;;;;;3.15;1.30;;;;;;;14.67;53.35;151339.83;1771871;78;21090;-72
2022/10/14 08:58:27;;;;;;;3.40;1.20;;;;;;;14.69;53.81;151343.72;1772345;79;21102;-70
2022/10/14 09:00:54;;;;;;;4.50;1.47;;;;;;;14.69;53.51;151343.72;1770991;79;21055;-75
2022/10/14 09:03:32;;;;;;;2.42;1.15;;;;;;;14.65;54.53;151334.63;1777163;79;21312;-76
2022/10/14 09:06:00;;;;;;;1.72;0.90;;;;;;;14.59;54.99;151319.03;1777341;79;20962;-74
2022/10/14 09:08:40;;;;;;;5.65;1.25;;;;;;;14.54;55.14;151307.30;1775073;80;20981;-74
2022/10/14 09:11:13;;;;;;;2.87;1.50;;;;;;;14.54;55.46;151307.30;1774814;79;21022;-75
2022/10/14 09:13:59;;;;;;;6.55;1.40;;;;;;;14.50;55.27;151296.91;1776973;79;21058;-74
2022/10/14 09:16:35;;;;;;;2.87;1.10;;;;;;;14.50;55.46;151296.91;1775263;79;21182;-76
2022/10/14 09:19:15;;;;;;;2.55;1.10;;;;;;;14.50;54.13;151296.91;1757277;80;21090;-75
2022/10/14 09:21:46;;;;;;;6.80;1.37;;;;;;;14.44;53.79;151281.25;1763620;80;21022;-74
2022/10/14 09:24:23;;;;;;;6.85;1.47;;;;;;;14.42;54.37;151276.05;1776054;80;21011;-74
2022/10/14 09:26:54;;;;;;;1.55;0.90;;;;;;;14.45;54.59;151283.84;1772131;79;21525;-71
2022/10/14 09:29:27;;;;;;;4.35;1.20;;;;;;;14.47;53.99;151290.38;1777548;79;21225;-71
2022/10/14 09:32:04;;;;;;;3.50;1.30;;;;;;;14.46;54.36;151286.45;1778725;80;21017;-67
2022/10/14 09:34:36;;;;;;;5.53;1.82;;;;;;;14.41;54.58;151273.45;1780071;80;20931;-71
2022/10/14 09:37:18;;;;;;;2.67;1.10;;;;;;;14.37;53.68;151263.05;1772754;79;21651;-71
2022/10/14 09:39:45;;;;;;;3.17;1.20;;;;;;;14.33;54.02;151255.25;1774203;79;21263;-66
2022/10/14 09:42:19;;;;;;;1.72;0.88;;;;;;;14.30;54.13;151247.45;1773124;80;21269;-67
2022/10/14 09:45:09;;;;;;;2.07;0.90;;;;;;;14.29;53.80;151244.84;1750925;80;21034;-67
2022/10/14 09:47:54;;;;;;;4.75;1.25;;;;;;;14.28;53.47;151242.25;1777649;80;21031;-67
2022/10/14 09:50:24;;;;;;;;;;;;;;;14.26;53.12;151237.05;1784893;79;21827;-66
2022/10/14 09:53:00;;;;;;;3.25;0.90;;;;;;;14.28;50.84;151242.25;1776461;79;20573;-66
2022/10/14 09:55:27;;;;;;;2.92;0.90;;;;;;;14.23;51.27;151229.20;1779109;80;21071;-66
2022/10/14 09:58:03;;;;;;;3.17;1.00;;;;;;;14.21;51.34;151222.73;1774410;79;21788;-66
2022/10/14 10:00:30;;;;;;;3.50;1.02;;;;;;;14.24;50.44;151231.81;1772909;79;21445;-68
2022/10/14 10:02:57;;;;;;;3.42;0.90;;;;;;;14.26;49.53;151237.05;1779736;80;21105;-66
2022/10/14 10:05:31;;;;;;;1.47;0.80;;;;;;;14.29;49.53;151244.84;1778018;80;21030;-66
2022/10/14 10:08:16;;;;;;;2.50;0.90;;;;;;;14.28;50.37;151242.25;1776683;80;21212;-66
2022/10/14 10:10:59;;;;;;;2.27;0.90;;;;;;;14.30;49.40;151247.45;1773945;79;21130;-67
2022/10/14 10:13:43;;;;;;;3.47;1.07;;;;;;;14.30;49.43;151247.45;1773598;79;21119;-67
2022/10/14 10:16:26;;;;;;;1.92;0.90;;;;;;;14.29;48.30;151244.84;1775134;79;21044;-67
2022/10/14 10:19:00;;;;;;;1.55;0.78;;;;;;;14.27;47.85;151239.66;1773792;80;21689;-67
2022/10/14 10:21:31;;;;;;;1.55;0.75;;;;;;;14.22;48.48;151226.59;1771287;79;21549;-66
2022/10/14 10:24:02;;;;;;;1.87;0.70;;;;;;;14.25;48.15;151233.13;1773743;80;21359;-72
2022/10/14 10:26:32;;;;;;;1.87;0.88;;;;;;;14.29;48.41;151244.84;1734730;80;21113;-70
2022/10/14 10:29:01;;;;;;;5.03;1.07;;;;;;;14.32;47.93;151252.66;1765703;80;21561;-66
2022/10/14 10:31:53;;;;;;;2.70;0.75;;;;;;;14.36;48.23;151260.45;1764067;80;21099;-66
2022/10/14 10:34:55;;;;;;;1.47;0.80;;;;;;;14.36;48.02;151260.45;1765316;80;21735;-66
2022/10/14 10:37:49;;;;;;;1.65;0.65;;;;;;;14.35;48.19;151257.84;1740892;80;21089;-66
2022/10/14 10:40:30;;;;;;;0.75;0.50;;;;;;;14.36;47.60;151261.72;1717707;80;21083;-66
2022/10/14 10:43:01;;;;;;;3.42;0.70;;;;;;;;;;1755923;80;21114;-67
2022/10/14 10:45:39;;;;;;;3.72;0.70;;;;;;;14.26;46.28;151237.05;1755184;80;22026;-67
2022/10/14 10:48:17;;;;;;;2.35;0.88;;;;;;;14.19;46.02;151218.81;1751124;80;21179;-68
2022/10/14 10:51:01;;;;;;;3.27;0.93;;;;;;;14.17;46.86;151213.59;1766152;80;20917;-67
2022/10/14 10:53:54;;;;;;;2.02;0.80;;;;;;;14.16;47.48;151212.33;1749492;79;21083;-65
2022/10/14 10:56:38;;;;;;;1.10;0.65;;;;;;;14.16;47.03;151211.00;1747352;81;21034;-65
2022/10/14 10:59:34;;;;;;;1.00;0.80;;;;;;;14.11;46.24;151199.28;1748451;80;22187;-67
2022/10/14 11:02:43;;;;;;;1.67;0.80;;;;;;;14.06;47.06;151186.28;1776698;80;21223;-67
2022/10/14 11:05:38;;;;;;;3.65;0.90;;;;;;;14.08;47.13;151190.20;1777719;80;20970;-66
2022/10/14 11:14:47;;;;;;;2.75;1.00;;;;;;;14.08;45.90;151190.20;1768989;80;21026;-66
2022/10/14 11:17:42;;;;;;;1.62;0.90;;;;;;;14.03;46.57;151179.77;1765526;79;21248;-67
2022/10/14 11:20:29;;;;;;;1.82;0.72;;;;;;;14.04;46.13;151182.41;1768648;79;21514;-65
2022/10/14 11:23:22;;;;;;;2.58;1.00;;;;;;;14.11;47.01;151198.00;1765444;79;21066;-66
2022/10/14 11:26:00;;;;;;;1.00;0.70;;;;;;;14.12;47.22;151200.59;1764624;79;21069;-67
2022/10/14 11:28:36;;;;;;;1.80;0.98;;;;;;;14.13;46.65;151203.20;1770793;79;21110;-67
2022/10/14 11:31:17;;;;;;;4.15;1.37;;;;;;;14.11;47.32;151198.00;1772492;79;21411;-67
2022/10/14 11:34:26;;;;;;;2.05;1.00;;;;;;;14.08;48.04;151190.20;1771239;79;21086;-69
2022/10/14 11:37:10;;;;;;;2.87;0.98;;;;;;;14.06;48.82;151185.00;1775680;79;21042;-69
2022/10/14 11:39:51;;;;;;;3.67;1.00;;;;;;;14.00;48.02;151171.97;1777309;79;21086;-70
2022/10/14 11:42:27;;;;;;;3.35;0.90;;;;;;;13.93;47.73;151153.77;1773030;79;21392;-70
2022/10/14 11:45:17;;;;;;;2.55;0.90;;;;;;;13.92;48.14;151151.17;1767270;80;21267;-71
2022/10/14 11:47:47;;;;;;;3.35;1.10;;;;;;;13.91;47.78;151148.56;1732695;80;21062;-70
2022/10/14 11:50:18;;;;;;;5.10;1.00;;;;;;;13.92;47.55;151149.84;1777236;80;21279;-69
2022/10/14 11:53:00;;;;;;;2.22;0.80;;;;;;;13.92;47.70;151151.17;1768374;79;21114;-69
2022/10/14 11:55:31;;;;;;;2.05;1.00;;;;;;;13.92;47.54;151151.17;1769483;79;21130;-65
2022/10/14 11:58:05;;;;;;;2.37;1.00;;;;;;;13.94;47.24;151156.38;1770705;80;21266;-66
2022/10/14 12:01:10;;;;;;;1.98;1.00;;;;;;;13.94;47.06;151156.38;1774911;80;21016;-66